createdAt,value
2018-11-22T12:16:05.401Z,22.30
2018-11-22T12:18:39.469Z,22.15
2018-11-22T12:21:09.417Z,20.27
2018-11-22T12:23:40.333Z,21.52
2018-11-22T12:26:12.201Z,19.92
2018-11-22T12:28:42.637Z,20.57
2018-11-22T12:31:15.889Z,19.42
2018-11-22T12:33:54.189Z,20.02
2018-11-22T12:36:29.169Z,17.90
2018-11-22T12:38:59.949Z,21.33
2018-11-22T12:41:29.805Z,18.85
2018-11-22T12:43:59.717Z,19.90
2018-11-22T12:46:33.932Z,19.05
2018-11-22T12:49:05.285Z,18.27
2018-11-22T12:51:36.124Z,19.50
2018-11-22T12:54:06.009Z,19.90
2018-11-22T12:56:41.793Z,17.45
2018-11-22T12:59:15.141Z,20.80
2018-11-22T13:01:44.965Z,20.52
2018-11-22T13:04:14.765Z,20.77
2018-11-22T13:06:48.861Z,21.07
2018-11-22T13:09:19.717Z,18.55
2018-11-22T13:11:50.518Z,18.55
2018-11-22T13:14:26.949Z,21.85
2018-11-22T13:16:56.877Z,24.18
2018-11-22T13:19:29.801Z,22.05
2018-11-22T13:21:59.726Z,22.25
2018-11-22T13:24:30.565Z,21.33
2018-11-22T13:27:00.400Z,19.62
2018-11-22T13:29:33.369Z,18.32
2018-11-22T13:32:04.212Z,21.95
2018-11-22T13:34:36.113Z,24.07
2018-11-22T13:37:06.022Z,22.25
2018-11-22T13:39:42.441Z,21.10
2018-11-22T13:42:13.233Z,20.52
2018-11-22T13:44:43.021Z,23.55
2018-11-22T13:47:18.949Z,23.55
2018-11-22T13:49:56.529Z,27.05
2018-11-22T13:52:37.250Z,25.95
2018-11-22T13:55:04.494Z,24.77
2018-11-22T13:57:34.746Z,28.05
2018-11-22T14:00:11.838Z,27.13
2018-11-22T14:02:42.762Z,24.75
2018-11-22T14:05:18.366Z,25.00
2018-11-22T14:07:49.188Z,26.93
2018-11-22T14:10:21.514Z,28.38
2018-11-22T14:12:52.419Z,27.30
2018-11-22T14:15:39.134Z,26.42
2018-11-22T14:18:16.504Z,25.30
2018-11-22T14:20:46.402Z,28.23
2018-11-22T14:23:21.621Z,37.17
2018-11-22T14:25:52.450Z,31.35
2018-11-22T14:28:24.354Z,25.68
2018-11-22T14:30:57.294Z,30.57
2018-11-22T14:33:27.126Z,29.77
2018-11-22T14:35:57.993Z,29.23
2018-11-22T14:38:27.894Z,29.15
2018-11-22T14:40:57.902Z,27.13
2018-11-22T14:43:29.126Z,28.52
2018-11-22T14:46:03.517Z,27.95
2018-11-22T14:48:38.866Z,27.40
2018-11-22T14:51:18.667Z,28.50
2018-11-22T14:53:50.681Z,29.70
2018-11-22T14:56:20.526Z,31.68
2018-11-22T14:58:53.558Z,30.15
2018-11-22T15:01:23.741Z,26.68
2018-11-22T15:03:53.538Z,25.88
2018-11-22T15:06:23.354Z,28.50
2018-11-22T15:08:53.853Z,30.43
2018-11-22T15:11:24.626Z,26.62
2018-11-22T15:13:58.422Z,25.95
2018-11-22T15:16:32.766Z,25.72
2018-11-22T15:19:03.674Z,25.85
2018-11-22T15:21:41.315Z,24.95
2018-11-22T15:24:11.084Z,30.97
2018-11-22T15:26:49.086Z,22.75
2018-11-22T15:29:20.845Z,23.42
2018-11-22T15:31:53.197Z,26.95
2018-11-22T15:34:32.694Z,26.23
2018-11-22T15:37:02.554Z,25.20
2018-11-22T15:39:33.326Z,26.25
2018-11-22T15:42:04.151Z,26.68
2018-11-22T15:44:37.750Z,28.35
2018-11-22T15:47:07.690Z,27.48
2018-11-22T15:49:40.654Z,27.90
2018-11-22T15:52:10.576Z,29.65
2018-11-22T15:54:42.382Z,29.45
2018-11-22T15:57:12.202Z,29.18
2018-11-22T15:59:45.882Z,30.45
2018-11-22T16:02:17.783Z,29.75
2018-11-22T16:04:51.306Z,30.75
2018-11-22T16:07:23.302Z,31.25
2018-11-22T16:09:55.081Z,30.55
2018-11-22T16:12:26.970Z,29.63
2018-11-22T16:15:02.214Z,32.83
2018-11-22T16:17:32.105Z,27.27
2018-11-22T16:20:02.946Z,32.48
2018-11-22T16:22:32.726Z,30.45
2018-11-22T16:25:03.549Z,34.25
2018-11-22T16:27:33.409Z,31.60
2018-11-22T16:30:05.229Z,28.50
2018-11-22T16:32:38.946Z,31.17
2018-11-22T16:35:13.966Z,27.95
2018-11-22T16:37:47.698Z,30.00
2018-11-22T16:40:18.799Z,33.53
2018-11-22T16:43:00.577Z,34.00
2018-11-22T16:45:37.079Z,35.33
2018-11-22T16:48:13.533Z,35.17
2018-11-22T16:50:46.593Z,32.33
2018-11-22T16:53:21.900Z,32.08
2018-11-22T16:55:54.313Z,26.75
2018-11-22T16:58:27.344Z,30.23
2018-11-22T17:01:00.453Z,29.75
2018-11-22T17:03:39.913Z,30.20
2018-11-22T17:06:10.737Z,30.45
2018-11-22T17:08:41.553Z,37.93
2018-11-22T17:11:15.187Z,35.28
2018-11-22T17:13:45.628Z,36.08
2018-11-22T17:16:20.021Z,33.08
2018-11-22T17:18:50.847Z,30.77
2018-11-22T17:21:20.761Z,33.70
2018-11-22T17:23:53.628Z,26.20
2018-11-22T17:26:23.473Z,32.33
2018-11-22T17:28:53.380Z,31.57
2018-11-22T17:31:23.381Z,32.40
2018-11-22T17:33:54.132Z,30.75
2018-11-22T17:36:24.144Z,30.82
2018-11-22T17:38:59.021Z,29.85
2018-11-22T17:41:29.929Z,35.35
2018-11-22T17:43:59.949Z,34.70
2018-11-22T17:46:30.776Z,33.65
2018-11-22T17:49:00.709Z,33.15
2018-11-22T17:51:33.772Z,30.48
2018-11-22T17:54:03.933Z,30.45
2018-11-22T17:56:37.280Z,34.13
2018-11-22T17:59:07.194Z,29.42
2018-11-22T18:01:37.153Z,27.48
2018-11-22T18:04:10.686Z,28.80
2018-11-22T18:06:41.505Z,33.38
2018-11-22T18:09:11.709Z,28.90
2018-11-22T18:11:42.573Z,31.15
2018-11-22T18:14:16.484Z,33.90
2018-11-22T18:16:46.301Z,31.07
2018-11-22T18:19:18.241Z,34.70
2018-11-22T18:21:49.132Z,33.08
2018-11-22T18:24:20.969Z,33.80
2018-11-22T18:26:51.825Z,32.33
2018-11-22T18:29:21.645Z,30.48
2018-11-22T18:31:51.533Z,28.65
2018-11-22T18:34:26.468Z,32.58
2018-11-22T18:36:56.341Z,36.58
2018-11-22T18:39:27.120Z,34.53
2018-11-22T18:41:57.156Z,32.93
2018-11-22T18:44:33.884Z,30.05
2018-11-22T18:47:03.713Z,33.58
2018-11-22T18:49:33.689Z,29.55
2018-11-22T18:52:03.545Z,35.70
2018-11-22T18:54:33.417Z,36.55
2018-11-22T18:57:04.585Z,33.48
2018-11-22T18:59:35.437Z,33.80
2018-11-22T19:02:05.904Z,35.35
2018-11-22T19:04:35.797Z,31.82
2018-11-22T19:07:07.653Z,32.58
2018-11-22T19:09:41.733Z,34.85
2018-11-22T19:12:18.291Z,34.27
2018-11-22T19:14:50.185Z,33.78
2018-11-22T19:17:20.101Z,39.67
2018-11-22T19:19:50.053Z,40.05
2018-11-22T19:22:21.472Z,35.50
2018-11-22T19:24:52.296Z,38.53
2018-11-22T19:27:23.129Z,43.92
2018-11-22T19:29:53.154Z,34.53
2018-11-22T19:32:24.934Z,36.90
2018-11-22T19:35:00.729Z,36.17
2018-11-22T19:37:31.549Z,40.73
2018-11-22T19:40:03.625Z,41.92
2018-11-22T19:42:36.705Z,40.40
2018-11-22T19:45:09.201Z,33.98
2018-11-22T19:47:39.065Z,35.43
2018-11-22T19:50:13.522Z,35.50
2018-11-22T19:52:45.135Z,33.58
2018-11-22T19:55:18.645Z,32.90
2018-11-22T19:57:51.095Z,32.67
2018-11-22T20:00:22.675Z,33.53
2018-11-22T20:02:54.331Z,41.30
2018-11-22T20:05:26.089Z,37.00
2018-11-22T20:08:00.412Z,40.08
2018-11-22T20:10:35.441Z,46.45
2018-11-22T20:13:07.313Z,48.42
2018-11-22T20:15:41.937Z,41.15
2018-11-22T20:18:12.437Z,45.03
2018-11-22T20:20:49.968Z,40.95
2018-11-22T20:23:21.960Z,43.55
2018-11-22T20:26:01.025Z,46.48
2018-11-22T20:28:48.237Z,55.05
2018-11-22T20:31:18.117Z,56.18
2018-11-22T20:33:49.078Z,53.73
2018-11-22T20:36:20.929Z,56.98
2018-11-22T20:38:50.797Z,53.33
2018-11-22T20:41:23.821Z,52.45
2018-11-22T20:43:53.737Z,55.00
2018-11-22T20:46:23.629Z,53.42
2018-11-22T20:48:57.245Z,54.05
2018-11-22T20:51:36.613Z,57.23
2018-11-22T20:54:16.305Z,59.40
2018-11-22T20:56:49.621Z,56.90
2018-11-22T20:59:21.461Z,58.35
2018-11-22T21:01:56.762Z,61.10
2018-11-22T21:04:26.564Z,61.50
2018-11-22T21:06:58.405Z,62.03
2018-11-22T21:09:32.192Z,70.22
2018-11-22T21:12:02.105Z,65.15
2018-11-22T21:14:39.525Z,61.48
2018-11-22T21:17:12.838Z,62.55
2018-11-22T21:19:45.785Z,62.58
2018-11-22T21:22:16.821Z,61.40
2018-11-22T21:24:47.685Z,64.50
2018-11-22T21:27:24.070Z,66.25
2018-11-22T21:29:55.985Z,63.42
2018-11-22T21:32:25.757Z,59.42
2018-11-22T21:34:56.633Z,56.80
2018-11-22T21:37:29.849Z,58.25
2018-11-22T21:39:59.806Z,58.65
2018-11-22T21:42:31.377Z,64.42
2018-11-22T21:45:02.153Z,64.07
2018-11-22T21:47:33.985Z,57.67
2018-11-22T21:50:04.142Z,69.37
2018-11-22T21:52:37.557Z,65.97
2018-11-22T21:55:10.787Z,60.85
2018-11-22T21:57:41.462Z,72.35
2018-11-22T22:00:19.382Z,66.97
2018-11-22T22:02:52.961Z,71.60
2018-11-22T22:05:29.593Z,68.80
2018-11-22T22:08:05.746Z,67.10
2018-11-22T22:10:37.610Z,53.15
2018-11-22T22:13:07.524Z,59.60
2018-11-22T22:15:37.858Z,69.80
2018-11-22T22:18:09.231Z,65.60
2018-11-22T22:20:40.084Z,57.03
2018-11-22T22:23:13.576Z,56.90
2018-11-22T22:25:53.870Z,63.92
2018-11-22T22:28:23.792Z,66.33
2018-11-22T22:30:53.958Z,67.40
2018-11-22T22:33:23.833Z,65.85
2018-11-22T22:35:54.626Z,59.90
2018-11-22T22:38:24.482Z,59.38
2018-11-22T22:40:54.414Z,61.55
2018-11-22T22:43:24.310Z,55.88
2018-11-22T22:45:57.110Z,64.03
2018-11-22T22:48:28.012Z,68.22
2018-11-22T22:50:58.906Z,60.78
2018-11-22T22:53:29.757Z,61.88
2018-11-22T22:56:00.698Z,54.95
2018-11-22T22:58:30.566Z,61.68
2018-11-22T23:01:02.885Z,65.67
2018-11-22T23:03:32.773Z,50.98
2018-11-22T23:06:04.565Z,61.00
2018-11-22T23:08:34.777Z,64.92
2018-11-22T23:11:04.678Z,67.60
2018-11-22T23:13:35.366Z,58.65
2018-11-22T23:16:05.278Z,57.03
2018-11-22T23:18:36.098Z,54.25
2018-11-22T23:21:06.090Z,62.90
2018-11-22T23:23:35.938Z,56.35
2018-11-22T23:26:06.046Z,58.70
2018-11-22T23:28:35.862Z,58.35
2018-11-22T23:31:06.354Z,50.65
2018-11-22T23:33:36.191Z,54.88
2018-11-22T23:36:06.146Z,61.00
2018-11-22T23:38:37.093Z,60.33
2018-11-22T23:41:06.965Z,54.15
2018-11-22T23:43:36.794Z,61.40
2018-11-22T23:46:06.875Z,60.63
2018-11-22T23:48:36.674Z,64.25
2018-11-22T23:51:06.538Z,64.53
2018-11-22T23:53:36.482Z,60.70
2018-11-22T23:56:07.386Z,69.70
2018-11-22T23:58:37.197Z,72.45
